createdAt,value
2022-11-01T00:02:08.118Z,95701.59
2022-11-01T00:04:35.176Z,95726.81
2022-11-01T00:07:02.534Z,95727.25
2022-11-01T00:09:29.596Z,95735.78
2022-11-01T00:11:56.939Z,95732.09
2022-11-01T00:14:25.480Z,95723.91
2022-11-01T00:16:52.475Z,95728.63
2022-11-01T00:19:20.156Z,95721.50
2022-11-01T00:21:47.239Z,95728.63
2022-11-01T00:24:14.557Z,95732.75
2022-11-01T00:26:41.688Z,95731.16
2022-11-01T00:29:09.040Z,95734.56
2022-11-01T00:31:37.561Z,95731.59
2022-11-01T00:34:04.759Z,95717.56
2022-11-01T00:36:32.040Z,95717.00
2022-11-01T00:38:59.081Z,95706.41
2022-11-01T00:41:26.284Z,95699.59
2022-11-01T00:43:53.445Z,95716.22
2022-11-01T00:46:20.539Z,95713.22
2022-11-01T00:48:49.199Z,95722.78
2022-11-01T00:51:16.400Z,95717.81
2022-11-01T00:53:43.538Z,95722.78
2022-11-01T00:56:10.580Z,95723.34
2022-11-01T00:58:37.678Z,95728.63
2022-11-01T01:01:04.780Z,95737.59
2022-11-01T01:03:32.207Z,95747.41
2022-11-01T01:06:01.139Z,95755.13
2022-11-01T01:08:28.622Z,95761.44
2022-11-01T01:10:55.740Z,95777.91
2022-11-01T01:13:23.218Z,95780.56
2022-11-01T01:15:50.398Z,95785.84
2022-11-01T01:18:17.958Z,95786.91
2022-11-01T01:20:44.998Z,95794.59
2022-11-01T01:23:13.418Z,95797.50
2022-11-01T01:25:41.961Z,95803.25
2022-11-01T01:28:09.700Z,95794.28
2022-11-01T01:30:41.059Z,95797.78
2022-11-01T01:33:08.900Z,95807.31
2022-11-01T01:35:36.080Z,95810.53
2022-11-01T01:38:03.414Z,95801.31
2022-11-01T01:40:32.378Z,95820.56
2022-11-01T01:42:59.778Z,95834.84
2022-11-01T01:45:36.805Z,95836.94
2022-11-01T01:48:12.878Z,95844.63
2022-11-01T01:50:46.400Z,95855.31
2022-11-01T01:53:20.039Z,95859.34
2022-11-01T01:55:56.798Z,95869.38
2022-11-01T01:58:30.562Z,95872.81
2022-11-01T02:00:58.930Z,95879.06
2022-11-01T02:03:32.178Z,95872.72
2022-11-01T02:06:06.355Z,95884.69
2022-11-01T02:08:35.540Z,95882.84
2022-11-01T02:11:06.898Z,95892.06
2022-11-01T02:13:34.758Z,95898.16
2022-11-01T02:16:35.679Z,95901.06
2022-11-01T02:19:46.788Z,95909.69
2022-11-01T02:22:25.340Z,95913.72
2022-11-01T02:25:30.757Z,95905.84
2022-11-01T02:28:15.019Z,95919.06
2022-11-01T02:30:53.840Z,95917.44
2022-11-01T02:33:30.718Z,95924.50
2022-11-01T02:36:03.940Z,95930.81
2022-11-01T02:38:40.179Z,95933.22
2022-11-01T02:41:13.441Z,95921.09
2022-11-01T02:43:49.165Z,95931.56
2022-11-01T02:46:21.379Z,95927.47
2022-11-01T02:48:51.087Z,95920.53
2022-11-01T02:51:22.683Z,95923.84
2022-11-01T02:53:49.698Z,95920.16
2022-11-01T02:56:19.119Z,95927.78
2022-11-01T02:58:49.063Z,95929.63
2022-11-01T03:01:23.814Z,95930.53
2022-11-01T03:03:57.200Z,95914.47
2022-11-01T03:06:31.248Z,95928.56
2022-11-01T03:09:02.979Z,95927.84
2022-11-01T03:11:39.299Z,95930.06
2022-11-01T03:14:18.508Z,95919.72
2022-11-01T03:16:55.998Z,95927.91
2022-11-01T03:19:37.878Z,95921.66
2022-11-01T03:22:11.546Z,95915.22
2022-11-01T03:24:45.738Z,95919.97
2022-11-01T03:27:19.699Z,95909.59
2022-11-01T03:29:54.018Z,95907.44
2022-11-01T03:32:23.798Z,95909.34
2022-11-01T03:34:53.878Z,95918.69
2022-11-01T03:37:21.046Z,95917.81
2022-11-01T03:39:53.858Z,95937.50
2022-11-01T03:42:24.121Z,95943.50
2022-11-01T03:44:59.000Z,95935.69
2022-11-01T03:47:26.299Z,95927.28
2022-11-01T03:50:13.078Z,95932.09
2022-11-01T03:52:40.239Z,95929.13
2022-11-01T03:55:08.498Z,95937.31
2022-11-01T03:57:35.698Z,95941.09
2022-11-01T04:00:02.807Z,95944.78
2022-11-01T04:02:29.858Z,95939.66
2022-11-01T04:04:56.918Z,95953.16
2022-11-01T04:07:25.379Z,95945.59
2022-11-01T04:09:52.398Z,95942.13
2022-11-01T04:12:19.457Z,95944.78
2022-11-01T04:14:46.501Z,95942.88
2022-11-01T04:17:13.499Z,95941.66
2022-11-01T04:19:40.559Z,95949.94
2022-11-01T04:22:07.619Z,95953.22
2022-11-01T04:24:36.120Z,95945.84
2022-11-01T04:27:03.098Z,95953.78
2022-11-01T04:29:30.127Z,95959.34
2022-11-01T04:31:57.301Z,95961.19
2022-11-01T04:34:24.439Z,95972.03
2022-11-01T04:36:51.542Z,95967.91
2022-11-01T04:39:18.560Z,95965.84
2022-11-01T04:41:46.999Z,95964.16
2022-11-01T04:44:14.039Z,95958.66
2022-11-01T04:46:41.113Z,95959.16
2022-11-01T04:49:08.187Z,95963.97
2022-11-01T04:51:35.339Z,95962.00
2022-11-01T04:54:02.364Z,95962.94
2022-11-01T04:56:29.401Z,95963.25
2022-11-01T04:58:58.638Z,95956.34
2022-11-01T05:01:25.884Z,95959.97
2022-11-01T05:03:53.060Z,95957.81
2022-11-01T05:06:20.118Z,95961.00
2022-11-01T05:08:47.120Z,95958.38
2022-11-01T05:11:14.204Z,95957.56
2022-11-01T05:13:41.246Z,95966.66
2022-11-01T05:16:25.222Z,95966.22
2022-11-01T05:18:52.322Z,95965.44
2022-11-01T05:21:19.379Z,95958.38
2022-11-01T05:23:47.963Z,95960.91
2022-11-01T05:26:15.190Z,95950.56
2022-11-01T05:28:42.379Z,95958.75
2022-11-01T05:31:10.859Z,95959.44
2022-11-01T05:33:37.960Z,95958.06
2022-11-01T05:36:05.558Z,95958.50
2022-11-01T05:38:32.535Z,95956.91
2022-11-01T05:41:02.469Z,95950.00
2022-11-01T05:43:29.647Z,95952.28
2022-11-01T05:45:56.760Z,95957.50
2022-11-01T05:48:25.246Z,95942.47
2022-11-01T05:50:52.240Z,95941.91
2022-11-01T05:53:19.279Z,95939.06
2022-11-01T05:55:46.319Z,95941.94
2022-11-01T05:58:13.703Z,95952.56
2022-11-01T06:00:40.778Z,95959.00
2022-11-01T06:03:08.191Z,95963.38
2022-11-01T06:05:37.861Z,95969.59
2022-11-01T06:08:06.539Z,95964.69
2022-11-01T06:10:34.298Z,95967.69
2022-11-01T06:13:01.716Z,95967.88
2022-11-01T06:15:29.041Z,95966.75
2022-11-01T06:17:56.561Z,95970.75
2022-11-01T06:20:23.618Z,95966.94
2022-11-01T06:22:52.119Z,95965.34
2022-11-01T06:25:20.582Z,95972.97
2022-11-01T06:27:47.740Z,95974.72
2022-11-01T06:30:15.140Z,95975.88
2022-11-01T06:32:42.160Z,95985.09
2022-11-01T06:35:09.878Z,95985.09
2022-11-01T06:37:36.963Z,95990.47
2022-11-01T06:40:07.521Z,95986.34
2022-11-01T06:42:34.880Z,96003.38
2022-11-01T06:45:02.130Z,95998.31
2022-11-01T06:47:29.367Z,96001.53
2022-11-01T06:49:56.518Z,96005.78
2022-11-01T06:52:23.559Z,96008.84
2022-11-01T06:54:50.780Z,96014.03
2022-11-01T06:57:19.358Z,96026.47
2022-11-01T06:59:46.378Z,96028.19
2022-11-01T07:02:14.680Z,96037.84
2022-11-01T07:04:42.399Z,96046.69
2022-11-01T07:07:09.518Z,96050.44
2022-11-01T07:09:36.702Z,96056.25
2022-11-01T07:12:03.999Z,96056.09
2022-11-01T07:14:32.618Z,96057.09
2022-11-01T07:16:59.659Z,96066.25
2022-11-01T07:19:26.759Z,96065.38
2022-11-01T07:21:53.801Z,96057.47
2022-11-01T07:24:20.939Z,96065.78
2022-11-01T07:26:47.999Z,96067.75
2022-11-01T07:29:15.099Z,96066.53
2022-11-01T07:31:43.598Z,96065.38
2022-11-01T07:34:10.659Z,96062.25
2022-11-01T07:36:37.798Z,96063.19
2022-11-01T07:39:04.840Z,96066.47
2022-11-01T07:41:32.041Z,96081.81
2022-11-01T07:43:59.079Z,96069.53
2022-11-01T07:46:26.120Z,96076.88
2022-11-01T07:48:56.274Z,96084.25
2022-11-01T07:51:23.398Z,96084.13
2022-11-01T07:53:50.497Z,96091.50
2022-11-01T07:56:17.521Z,96102.78
2022-11-01T07:58:44.598Z,96105.22
2022-11-01T08:01:11.947Z,96108.13
2022-11-01T08:03:39.160Z,96116.75
2022-11-01T08:06:08.431Z,96113.88
2022-11-01T08:08:35.610Z,96111.56
2022-11-01T08:11:03.240Z,96115.03
2022-11-01T08:13:31.119Z,96109.94
2022-11-01T08:16:01.132Z,96117.22
2022-11-01T08:18:28.340Z,96115.03
2022-11-01T08:20:55.360Z,96121.47
2022-11-01T08:23:23.938Z,96124.69
2022-11-01T08:25:51.019Z,96122.63
2022-11-01T08:28:20.779Z,96115.25
2022-11-01T08:30:49.884Z,96110.63
2022-11-01T08:33:17.203Z,96126.66
2022-11-01T08:35:49.861Z,96119.28
2022-11-01T08:38:17.758Z,96120.66
2022-11-01T08:40:46.329Z,96124.13
2022-11-01T08:43:13.484Z,96127.69
2022-11-01T08:45:40.560Z,96121.13
2022-11-01T08:48:09.262Z,96124.69
2022-11-01T08:50:36.627Z,96127.59
2022-11-01T08:53:08.360Z,96124.13
2022-11-01T08:55:37.864Z,96131.72
2022-11-01T08:58:08.184Z,96130.34
2022-11-01T09:00:35.899Z,96128.75
2022-11-01T09:03:03.031Z,96134.63
2022-11-01T09:05:30.131Z,96133.00
2022-11-01T09:07:58.777Z,96128.63
2022-11-01T09:10:25.960Z,96141.31
2022-11-01T09:12:53.141Z,96136.91
2022-11-01T09:15:21.659Z,96136.00
2022-11-01T09:17:48.699Z,96142.22
2022-11-01T09:20:15.859Z,96140.94
2022-11-01T09:22:42.921Z,96139.44
2022-11-01T09:25:10.838Z,96139.47
2022-11-01T09:27:39.139Z,96150.41
2022-11-01T09:30:07.421Z,96140.72
2022-11-01T09:32:35.878Z,96140.03
2022-11-01T09:35:03.590Z,96144.06
2022-11-01T09:37:30.859Z,96140.38
2022-11-01T09:39:57.939Z,96145.09
2022-11-01T09:42:31.479Z,96147.38
2022-11-01T09:45:05.918Z,96151.63
2022-11-01T09:47:36.741Z,96147.03
2022-11-01T09:50:11.682Z,96147.97
2022-11-01T09:52:41.653Z,96157.31
2022-11-01T09:55:15.126Z,96159.81
2022-11-01T09:57:49.659Z,96147.94
2022-11-01T10:00:20.542Z,96148.75
2022-11-01T10:03:13.481Z,96157.53
2022-11-01T10:05:59.099Z,96152.56
2022-11-01T10:08:50.120Z,96153.25
2022-11-01T10:11:43.485Z,96152.69
2022-11-01T10:14:25.737Z,96160.53
2022-11-01T10:17:06.764Z,96152.56
2022-11-01T10:19:38.461Z,96153.72
2022-11-01T10:22:14.923Z,96149.91
2022-11-01T10:24:49.959Z,96146.47
2022-11-01T10:27:29.089Z,96145.66
2022-11-01T10:30:02.859Z,96147.50
2022-11-01T10:32:38.179Z,96153.38
2022-11-01T10:35:16.120Z,96150.50
2022-11-01T10:38:03.992Z,96154.88
2022-11-01T10:40:41.762Z,96153.94
2022-11-01T10:43:15.418Z,96162.47
2022-11-01T10:45:47.775Z,96156.72
2022-11-01T10:48:27.719Z,96162.47
2022-11-01T10:51:00.699Z,96159.47
2022-11-01T10:53:33.920Z,96149.44
2022-11-01T10:56:06.799Z,96151.06
2022-11-01T10:58:40.063Z,96157.06
2022-11-01T11:01:13.974Z,96155.38
2022-11-01T11:03:44.939Z,96153.97
2022-11-01T11:06:15.238Z,96152.47
2022-11-01T11:11:16.297Z,96159.41
2022-11-01T11:13:48.708Z,96154.44
2022-11-01T11:16:29.322Z,96157.53
2022-11-01T11:19:13.043Z,96168.63
2022-11-01T11:21:44.022Z,96159.38
2022-11-01T11:24:18.512Z,96159.16
2022-11-01T11:26:52.895Z,96155.25
2022-11-01T11:29:39.828Z,96141.41
2022-11-01T11:32:15.899Z,96146.81
2022-11-01T11:34:43.304Z,96143.38
2022-11-01T11:37:21.908Z,96137.97
2022-11-01T11:40:21.726Z,96134.25
2022-11-01T11:42:50.404Z,96137.22
2022-11-01T11:45:24.620Z,96129.97
2022-11-01T11:47:51.739Z,96133.09
2022-11-01T11:50:40.328Z,96129.69
2022-11-01T11:53:18.550Z,96128.69
2022-11-01T11:55:52.706Z,96125.78
2022-11-01T11:58:27.041Z,96125.00
2022-11-01T12:01:02.158Z,96120.56
2022-11-01T12:03:29.803Z,96125.69
2022-11-01T12:06:00.921Z,96129.53
2022-11-01T12:08:38.059Z,96126.44
2022-11-01T12:11:05.518Z,96121.81
2022-11-01T12:13:35.538Z,96125.16
2022-11-01T12:16:16.954Z,96116.31
2022-11-01T12:18:51.698Z,96124.75
2022-11-01T12:21:22.941Z,96118.75
2022-11-01T12:23:57.186Z,96111.28
2022-11-01T12:26:29.382Z,96114.28
2022-11-01T12:29:06.900Z,96108.47
2022-11-01T12:31:34.579Z,96117.50
2022-11-01T12:34:14.279Z,96112.56
2022-11-01T12:36:48.670Z,96108.63
2022-11-01T12:39:38.299Z,96109.19
2022-11-01T12:42:05.483Z,96113.94
2022-11-01T12:44:37.671Z,96096.41
2022-11-01T12:47:16.439Z,96100.69
2022-11-01T12:49:54.639Z,96098.03
2022-11-01T12:52:29.959Z,96099.72
2022-11-01T12:55:08.219Z,96093.38
2022-11-01T12:57:35.920Z,96088.63
2022-11-01T13:00:03.624Z,96081.25
2022-11-01T13:02:52.019Z,96073.06
2022-11-01T13:05:25.019Z,96071.78
2022-11-01T13:08:04.258Z,96077.06
2022-11-01T13:10:37.066Z,96083.31
2022-11-01T13:13:19.139Z,96083.31
2022-11-01T13:16:00.361Z,96077.84
2022-11-01T13:18:40.500Z,96084.75
2022-11-01T13:21:16.526Z,96086.78
2022-11-01T13:23:51.115Z,96084.22
2022-11-01T13:26:26.118Z,96085.78
2022-11-01T13:29:06.607Z,96070.97
2022-11-01T13:31:46.680Z,96071.19
2022-11-01T13:34:42.858Z,96073.41
2022-11-01T13:37:22.740Z,96067.34
2022-11-01T13:40:07.279Z,96074.84
2022-11-01T13:42:41.824Z,96069.88
2022-11-01T13:45:49.850Z,96076.69
2022-11-01T13:48:33.558Z,96070.38
2022-11-01T13:51:15.379Z,96066.66
2022-11-01T13:53:52.841Z,96073.03
2022-11-01T13:56:28.698Z,96062.41
2022-11-01T13:58:57.298Z,96070.25
2022-11-01T14:01:34.052Z,96063.34
2022-11-01T14:04:45.783Z,96060.50
2022-11-01T14:07:16.218Z,96053.16
2022-11-01T14:09:45.160Z,96055.00
2022-11-01T14:12:31.801Z,96055.66
2022-11-01T14:15:19.976Z,96055.34
2022-11-01T14:18:09.359Z,96057.44
2022-11-01T14:20:51.734Z,96056.63
2022-11-01T14:23:58.339Z,96060.66
2022-11-01T14:26:36.640Z,96057.44
2022-11-01T14:29:09.840Z,96055.59
2022-11-01T14:31:42.824Z,96050.28
2022-11-01T14:34:24.218Z,96055.91
2022-11-01T14:36:55.379Z,96056.72
2022-11-01T14:39:31.599Z,96060.16
2022-11-01T14:42:05.424Z,96062.47
2022-11-01T14:44:38.522Z,96047.84
2022-11-01T14:47:22.155Z,96052.25
2022-11-01T14:49:55.051Z,96060.56
2022-11-01T14:52:30.033Z,96059.66
2022-11-01T14:55:13.363Z,96066.59
2022-11-01T14:57:40.964Z,96062.88
2022-11-01T15:00:28.856Z,96061.75
2022-11-01T15:07:58.840Z,96061.09
2022-11-01T15:10:27.239Z,96050.94
2022-11-01T15:12:59.141Z,96053.25
2022-11-01T15:15:29.681Z,96052.91
2022-11-01T15:18:02.939Z,96056.34
2022-11-01T15:20:38.382Z,96050.47
2022-11-01T15:23:11.143Z,96054.19
2022-11-01T15:25:40.063Z,96051.19
2022-11-01T15:28:07.335Z,96045.53
2022-11-01T15:30:34.938Z,96046.69
2022-11-01T15:33:20.339Z,96046.13
2022-11-01T15:35:54.340Z,96051.09
2022-11-01T15:38:21.440Z,96049.25
2022-11-01T15:40:48.508Z,96048.66
2022-11-01T15:43:19.398Z,96053.03
2022-11-01T15:45:52.499Z,96052.00
2022-11-01T15:48:25.291Z,96057.88
2022-11-01T15:50:57.408Z,96055.13
2022-11-01T15:53:28.699Z,96059.03
2022-11-01T15:56:02.663Z,96057.66
2022-11-01T15:58:37.359Z,96060.78
2022-11-01T16:01:12.624Z,96062.25
2022-11-01T16:03:49.718Z,96058.44
2022-11-01T16:06:21.918Z,96060.75
2022-11-01T16:08:54.518Z,96056.72
2022-11-01T16:11:26.315Z,96059.59
2022-11-01T16:14:00.419Z,96066.16
2022-11-01T16:16:27.727Z,96053.34
2022-11-01T16:18:56.239Z,96054.84
2022-11-01T16:21:30.800Z,96063.69
2022-11-01T16:24:08.373Z,96062.56
2022-11-01T16:26:54.638Z,96060.38
2022-11-01T16:29:49.199Z,96071.31
2022-11-01T16:32:20.063Z,96067.75
2022-11-01T16:34:48.960Z,96070.38
2022-11-01T16:37:24.621Z,96074.75
2022-11-01T16:39:53.580Z,96086.59
2022-11-01T16:42:22.962Z,96082.22
2022-11-01T16:44:55.264Z,96083.84
2022-11-01T16:47:23.242Z,96083.84
2022-11-01T16:49:54.125Z,96089.34
2022-11-01T16:52:21.303Z,96092.22
2022-11-01T16:54:49.692Z,96093.28
2022-11-01T16:57:23.744Z,96091.19
2022-11-01T16:59:51.504Z,96106.72
2022-11-01T17:02:21.795Z,96106.81
2022-11-01T17:04:53.903Z,96105.09
2022-11-01T17:07:21.002Z,96109.22
2022-11-01T17:09:48.203Z,96118.81
2022-11-01T17:12:15.342Z,96120.06
2022-11-01T17:14:42.431Z,96120.88
2022-11-01T17:17:16.863Z,96123.75
2022-11-01T17:19:48.823Z,96126.84
2022-11-01T17:22:22.143Z,96129.72
2022-11-01T17:24:49.542Z,96127.28
2022-11-01T17:27:16.902Z,96133.75
2022-11-01T17:29:43.948Z,96138.81
2022-11-01T17:32:11.022Z,96136.03
2022-11-01T17:34:38.604Z,96135.69
2022-11-01T17:37:06.466Z,96143.63
2022-11-01T17:39:36.623Z,96142.56
2022-11-01T17:42:05.923Z,96147.06
2022-11-01T17:44:33.055Z,96145.81
2022-11-01T17:47:00.171Z,96149.63
2022-11-01T17:49:27.568Z,96149.41
2022-11-01T17:51:55.782Z,96145.94
2022-11-01T17:54:22.926Z,96149.34
2022-11-01T17:56:51.685Z,96153.03
2022-11-01T17:59:18.978Z,96150.38
2022-11-01T18:01:46.361Z,96156.66
2022-11-01T18:04:13.610Z,96149.41
2022-11-01T18:06:40.795Z,96145.94
2022-11-01T18:09:19.828Z,96146.38
2022-11-01T18:11:59.709Z,96146.63
2022-11-01T18:14:48.173Z,96151.31
2022-11-01T18:17:37.867Z,96149.84
2022-11-01T18:20:18.387Z,96151.56
2022-11-01T18:22:53.560Z,96151.25
2022-11-01T18:25:29.742Z,96156.31
2022-11-01T18:28:02.254Z,96156.66
2022-11-01T18:30:30.339Z,96156.50
2022-11-01T18:33:04.362Z,96163.16
2022-11-01T18:35:38.301Z,96157.84
2022-11-01T18:38:15.483Z,96159.69
2022-11-01T18:40:55.864Z,96161.78
2022-11-01T18:43:25.921Z,96155.88
2022-11-01T18:46:22.779Z,96154.47
2022-11-01T18:48:39.920Z,96156.75
2022-11-01T18:51:13.900Z,96154.72
2022-11-01T18:53:41.060Z,96159.31
2022-11-01T18:56:21.122Z,96159.78
2022-11-01T18:58:51.720Z,96155.38
2022-11-01T19:01:20.892Z,96156.97
2022-11-01T19:04:00.012Z,96155.13
2022-11-01T19:06:27.359Z,96161.66
2022-11-01T19:08:57.379Z,96151.31
2022-11-01T19:11:26.841Z,96149.56
2022-11-01T19:13:58.162Z,96148.41
2022-11-01T19:16:25.928Z,96150.91
2022-11-01T19:18:53.021Z,96150.91
2022-11-01T19:21:22.543Z,96150.09
2022-11-01T19:23:51.659Z,96158.84
2022-11-01T19:26:29.141Z,96154.22
2022-11-01T19:28:57.961Z,96156.13
2022-11-01T19:31:29.199Z,96155.75
2022-11-01T19:34:00.439Z,96158.03
2022-11-01T19:36:37.100Z,96161.78
2022-11-01T19:39:21.000Z,96154.75
2022-11-01T19:41:48.319Z,96162.03
2022-11-01T19:44:21.282Z,96165.44
2022-11-01T19:46:49.200Z,96157.16
2022-11-01T19:49:23.343Z,96158.63
2022-11-01T19:52:06.140Z,96161.84
2022-11-01T19:54:38.403Z,96168.78
2022-11-01T20:00:12.459Z,96167.97
2022-11-01T20:02:39.775Z,96168.78
2022-11-01T20:05:26.905Z,96171.41
2022-11-01T20:08:06.820Z,96171.19
2022-11-01T20:10:33.882Z,96168.97
2022-11-01T20:13:01.011Z,96169.34
2022-11-01T20:15:29.703Z,96172.44
2022-11-01T20:17:56.804Z,96166.19
2022-11-01T20:20:24.120Z,96177.47
2022-11-01T20:23:06.123Z,96174.91
2022-11-01T20:25:38.761Z,96175.19
2022-11-01T20:28:06.540Z,96177.09
2022-11-01T20:30:35.019Z,96178.59
2022-11-01T20:33:02.331Z,96181.91
2022-11-01T20:35:29.702Z,96182.22
2022-11-01T20:37:56.880Z,96184.88
2022-11-01T20:40:24.159Z,96193.88
2022-11-01T20:42:51.463Z,96188.66
2022-11-01T20:45:18.532Z,96185.41
2022-11-01T20:47:47.083Z,96185.00
2022-11-01T20:50:16.122Z,96187.94
2022-11-01T20:52:43.140Z,96191.53
2022-11-01T20:55:12.343Z,96185.06
2022-11-01T20:57:39.625Z,96183.31
2022-11-01T21:00:09.199Z,96188.00
2022-11-01T21:02:36.861Z,96189.41
2022-11-01T21:05:18.520Z,96190.88
2022-11-01T21:07:47.956Z,96197.84
2022-11-01T21:10:28.482Z,96195.41
2022-11-01T21:12:55.959Z,96202.97
2022-11-01T21:15:40.723Z,96203.25
2022-11-01T21:18:30.962Z,96209.41
2022-11-01T21:21:18.863Z,96204.97
2022-11-01T21:23:46.805Z,96208.63
2022-11-01T21:26:19.560Z,96213.50
2022-11-01T21:28:50.330Z,96210.25
2022-11-01T21:31:26.675Z,96212.75
2022-11-01T21:33:56.287Z,96208.06
2022-11-01T21:36:31.300Z,96206.88
2022-11-01T21:39:00.363Z,96209.94
2022-11-01T21:41:33.261Z,96217.06
2022-11-01T21:44:26.999Z,96219.16
2022-11-01T21:46:56.460Z,96228.81
2022-11-01T21:49:27.041Z,96229.81
2022-11-01T21:51:57.517Z,96223.34
2022-11-01T21:54:25.081Z,96228.44
2022-11-01T21:56:52.321Z,96227.97
2022-11-01T21:59:19.641Z,96227.41
2022-11-01T22:01:48.711Z,96232.06
2022-11-01T22:04:16.959Z,96234.13
2022-11-01T22:06:45.160Z,96234.34
2022-11-01T22:09:14.600Z,96232.91
2022-11-01T22:11:41.659Z,96227.25
2022-11-01T22:14:09.601Z,96233.16
2022-11-01T22:16:37.539Z,96239.47
2022-11-01T22:19:05.300Z,96243.13
2022-11-01T22:21:32.831Z,96244.91
2022-11-01T22:24:00.559Z,96245.31
2022-11-01T22:26:29.800Z,96244.94
2022-11-01T22:28:57.081Z,96237.28
2022-11-01T22:31:24.307Z,96244.56
2022-11-01T22:33:52.401Z,96240.91
2022-11-01T22:36:23.757Z,96237.59
2022-11-01T22:38:51.460Z,96244.16
2022-11-01T22:41:28.384Z,96238.81
2022-11-01T22:44:04.081Z,96242.13
2022-11-01T22:46:43.540Z,96238.44
2022-11-01T22:49:16.927Z,96238.66
2022-11-01T22:51:50.319Z,96236.84
2022-11-01T22:54:30.061Z,96240.25
2022-11-01T22:57:06.780Z,96236.38
2022-11-01T22:59:40.502Z,96236.84
2022-11-01T23:02:25.228Z,96237.81
2022-11-01T23:05:01.459Z,96234.94
2022-11-01T23:07:34.440Z,96236.09
2022-11-01T23:10:04.062Z,96249.03
2022-11-01T23:12:33.119Z,96247.72
2022-11-01T23:15:01.660Z,96241.81
2022-11-01T23:17:36.401Z,96248.88
2022-11-01T23:20:04.441Z,96240.94
2022-11-01T23:22:35.289Z,96247.25
2022-11-01T23:25:04.680Z,96250.28
2022-11-01T23:27:32.021Z,96259.84
2022-11-01T23:30:03.097Z,96266.97
2022-11-01T23:32:31.619Z,96262.09
2022-11-01T23:35:11.700Z,96263.91
2022-11-01T23:37:38.760Z,96261.72
2022-11-01T23:40:14.920Z,96259.94
2022-11-01T23:42:42.459Z,96263.38
2022-11-01T23:45:27.860Z,96257.66
2022-11-01T23:47:55.659Z,96259.66
2022-11-01T23:50:29.399Z,96261.50
2022-11-01T23:52:59.880Z,96255.03
2022-11-01T23:55:29.739Z,96258.47
2022-11-01T23:57:59.780Z,96262.56
